Bronnicy, Russia
Current Conditions -  °F | °C
As of 5:00 AM on Tuesday 25 Nov 2014 (Local Time) from UUDD Reporting Station
Haze Haze  
Wind Chill: 17°   Ceiling: 700
Heat Index: 25°   Visibility: 3mi
Dew Point: 25°   Wind: 7mph
Humidity: 100%   Direction: 170°S
Pressure: 30.62"   Gusts: NA
Location:  55.43°N, 38.27°E
Report Text: UUDD 250200Z 17003MPS 5000 BR OVC007 M04/M04 Q1037 14290094NOSIG
Loading
Personal Weather Stations






























Interactive Weather Map New forecast layout! Learn more

10-Day Weather Forecast

Advertisements
Track Severe Weather on mobile